Time;durP1;ratioP1;P1;durP2;ratioP2;P2;SDS_P1;SDS_P2;PMS_P1;PMS_P2;Temp;Humidity;BMP_temperature;BMP_pressure;BME280_temperature;BME280_humidity;BME280_pressure;Samples;Min_cycle;Max_cycle;Signal;HPM_P1;HPM_P2
2023/05/23 00:02:20;;;;;;;16.02;10.40;;;;;;;14.23;65.22;100213.94;5052355;28;20029;-61
2023/05/23 00:04:45;;;;;;;17.40;10.13;;;;;;;14.24;65.02;100201.34;5053015;28;20025;-54
2023/05/23 00:07:11;;;;;;;14.27;9.38;;;;;;;14.14;65.69;100209.41;5053874;28;20054;-58
2023/05/23 00:09:36;;;;;;;19.75;10.80;;;;;;;13.93;65.62;100181.56;5053375;28;20369;-59
2023/05/23 00:12:02;;;;;;;20.13;9.93;;;;;;;13.93;66.19;100195.00;5053526;28;20025;-53
2023/05/23 00:14:32;;;;;;;20.95;11.40;;;;;;;13.91;66.31;100205.06;5054162;28;20410;-56
2023/05/23 00:16:59;;;;;;;20.10;11.65;;;;;;;13.92;66.71;100211.31;5053949;28;20049;-58
2023/05/23 00:19:24;;;;;;;17.88;11.95;;;;;;;13.87;66.65;100205.50;5053417;28;20436;-56
2023/05/23 00:21:52;;;;;;;20.25;11.30;;;;;;;13.75;66.50;100196.66;5053935;28;20112;-59
2023/05/23 00:24:19;;;;;;;25.38;12.50;;;;;;;13.81;66.38;100214.97;5054048;28;20118;-56
2023/05/23 00:26:45;;;;;;;17.60;11.80;;;;;;;13.82;66.18;100213.09;5054020;28;20025;-59
2023/05/23 00:29:15;;;;;;;27.67;12.85;;;;;;;13.86;65.89;100207.31;5053543;28;20082;-61
2023/05/23 00:31:45;;;;;;;21.45;12.18;;;;;;;13.96;65.91;100214.56;5053920;28;20127;-55
2023/05/23 00:34:17;;;;;;;20.13;11.88;;;;;;;14.06;65.14;100224.38;5035712;28;20368;-59
2023/05/23 00:36:43;;;;;;;24.27;12.05;;;;;;;13.96;65.23;100206.50;5053928;28;20052;-57
2023/05/23 00:39:16;;;;;;;18.52;12.50;;;;;;;13.88;65.19;100183.81;5053632;28;20357;-58
2023/05/23 00:41:41;;;;;;;16.58;12.43;;;;;;;14.03;64.87;100208.50;5053592;28;20033;-61
2023/05/23 00:44:08;;;;;;;16.35;12.27;;;;;;;13.83;64.58;100166.38;5053574;28;20115;-58
2023/05/23 00:46:34;;;;;;;19.90;12.10;;;;;;;13.98;64.98;100199.13;5053709;28;20029;-53
2023/05/23 00:49:00;;;;;;;21.50;13.10;;;;;;;13.96;65.03;100206.50;5053304;28;20044;-53
2023/05/23 00:51:26;;;;;;;19.65;12.82;;;;;;;13.92;65.37;100208.63;5052988;28;20039;-55
2023/05/23 00:53:53;;;;;;;21.05;14.05;;;;;;;13.81;65.54;100209.56;5053069;28;20086;-58
2023/05/23 00:56:19;;;;;;;21.90;13.95;;;;;;;13.83;65.53;100202.22;5053943;28;20029;-57
2023/05/23 00:58:46;;;;;;;18.70;11.93;;;;;;;13.80;65.98;100207.88;5053331;28;20032;-58
2023/05/23 01:01:14;;;;;;;22.23;14.13;;;;;;;13.82;65.77;100215.78;5035456;28;20367;-57
2023/05/23 01:03:39;;;;;;;22.23;13.82;;;;;;;13.80;65.64;100210.56;5052549;28;20094;-55
2023/05/23 01:06:06;;;;;;;20.27;13.07;;;;;;;13.66;65.49;100173.25;5052966;28;20040;-60
2023/05/23 01:08:31;;;;;;;19.85;13.38;;;;;;;13.82;65.10;100199.66;5053023;28;20033;-56
2023/05/23 01:11:05;;;;;;;18.58;13.70;;;;;;;13.89;64.99;100207.03;5052754;28;20040;-62
2023/05/23 01:13:50;;;;;;;19.48;13.13;;;;;;;13.72;65.62;100172.69;5052063;28;20071;-54
2023/05/23 01:16:28;;;;;;;21.83;14.23;;;;;;;13.85;65.49;100211.00;5052931;28;20045;-57
2023/05/23 01:19:11;;;;;;;25.75;14.68;;;;;;;13.55;65.35;100150.84;5052565;28;20041;-59
2023/05/23 01:21:37;;;;;;;21.13;13.90;;;;;;;13.95;64.64;100199.41;5035365;28;20029;-54
2023/05/23 01:24:20;;;;;;;27.60;14.65;;;;;;;14.02;64.17;100189.81;5052311;28;20104;-59
2023/05/23 01:27:04;;;;;;;22.73;13.85;;;;;;;13.99;64.50;100192.78;5052810;28;20049;-56
2023/05/23 01:29:37;;;;;;;28.80;14.93;;;;;;;14.07;64.26;100192.94;5032842;28;20138;-54
2023/05/23 01:32:06;;;;;;;26.70;14.82;;;;;;;13.93;65.05;100192.31;5015198;28;20021;-60
2023/05/23 01:34:34;;;;;;;26.77;15.00;;;;;;;14.05;64.44;100194.91;5032771;28;20163;-58
2023/05/23 01:36:59;;;;;;;25.80;15.15;;;;;;;13.84;63.97;100162.69;5033721;28;20037;-57
2023/05/23 01:39:25;;;;;;;24.45;14.95;;;;;;;13.84;65.32;100157.28;5034714;28;20037;-57
2023/05/23 01:41:52;;;;;;;27.02;14.48;;;;;;;14.07;64.13;100201.00;5052870;28;20036;-56
2023/05/23 01:44:18;;;;;;;21.60;14.35;;;;;;;13.95;63.71;100172.50;5052339;28;20071;-56
2023/05/23 01:46:45;;;;;;;20.60;14.88;;;;;;;14.18;63.17;100211.66;5052233;28;20049;-58
2023/05/23 01:49:13;;;;;;;24.58;14.93;;;;;;;14.27;62.96;100201.06;5051941;28;20104;-60
2023/05/23 01:51:39;;;;;;;24.10;14.13;;;;;;;14.38;62.24;100186.63;5052458;28;20037;-53
2023/05/23 01:54:06;;;;;;;24.63;14.73;;;;;;;14.32;63.04;100185.34;5051861;28;20104;-57
2023/05/23 01:56:32;;;;;;;20.45;14.82;;;;;;;14.30;63.10;100188.16;5051517;28;20120;-58
2023/05/23 01:58:58;;;;;;;21.42;13.80;;;;;;;14.35;62.65;100185.91;5051525;28;20492;-58
2023/05/23 02:01:24;;;;;;;19.45;14.60;;;;;;;14.32;63.26;100167.31;5035076;28;20116;-54
2023/05/23 02:03:50;;;;;;;26.20;15.07;;;;;;;14.40;63.06;100182.78;5052186;28;20361;-58
2023/05/23 02:06:15;;;;;;;23.48;13.57;;;;;;;14.46;63.18;100182.22;5052238;28;20128;-54
2023/05/23 02:08:41;;;;;;;23.98;15.27;;;;;;;14.56;62.07;100182.22;5052186;28;20375;-56
2023/05/23 02:11:07;;;;;;;21.30;13.75;;;;;;;14.70;61.97;100183.66;5034499;28;20083;-53
2023/05/23 02:13:34;;;;;;;20.02;14.10;;;;;;;14.84;60.92;100173.47;5018115;28;20025;-61
2023/05/23 02:16:00;;;;;;;23.42;13.82;;;;;;;14.90;59.85;100170.19;5052147;28;20106;-59
2023/05/23 02:18:28;;;;;;;21.10;13.90;;;;;;;15.11;59.05;100172.72;5053750;28;20061;-64
2023/05/23 02:21:13;;;;;;;21.38;14.02;;;;;;;15.20;60.25;100176.41;5041456;28;20041;-58
2023/05/23 02:23:38;;;;;;;20.77;13.55;;;;;;;15.30;58.57;100176.34;5055864;28;20094;-56
2023/05/23 02:26:04;;;;;;;16.25;12.65;;;;;;;15.43;57.48;100173.34;5055624;28;20049;-52
2023/05/23 02:28:30;;;;;;;26.30;14.00;;;;;;;15.54;57.42;100167.78;5055634;28;20116;-54
2023/05/23 02:30:55;;;;;;;22.73;13.90;;;;;;;15.44;58.12;100138.13;5038335;28;20453;-58
2023/05/23 02:33:21;;;;;;;20.52;12.90;;;;;;;15.75;56.80;100170.22;5038982;28;20131;-57
2023/05/23 02:35:48;;;;;;;16.10;13.23;;;;;;;15.64;58.58;100149.69;5038814;28;20033;-58
2023/05/23 02:38:14;;;;;;;25.27;14.02;;;;;;;15.77;58.15;100143.09;5055435;28;20108;-60
2023/05/23 02:40:40;;;;;;;20.10;13.18;;;;;;;15.83;57.95;100153.28;5056248;28;20068;-54
2023/05/23 02:43:05;;;;;;;18.90;12.80;;;;;;;15.89;56.27;100163.50;5056347;28;20075;-53
2023/05/23 02:45:31;;;;;;;19.98;12.73;;;;;;;15.74;55.51;100129.91;5038174;28;20028;-60
2023/05/23 02:47:56;;;;;;;17.05;12.32;;;;;;;15.98;55.13;100161.75;5038093;28;20056;-58
2023/05/23 02:50:22;;;;;;;20.90;12.75;;;;;;;16.20;54.22;100174.00;5038357;28;20057;-55
2023/05/23 02:52:48;;;;;;;23.85;12.48;;;;;;;16.27;53.87;100165.28;5055729;28;20039;-55
2023/05/23 02:55:13;;;;;;;17.90;11.50;;;;;;;16.38;53.19;100165.06;5055700;28;20043;-55
2023/05/23 02:57:39;;;;;;;17.85;11.82;;;;;;;16.46;52.29;100165.16;5055141;28;20084;-56
2023/05/23 03:00:05;;;;;;;22.00;12.20;;;;;;;16.47;52.55;100172.25;5055575;28;20114;-53
2023/05/23 03:02:32;;;;;;;19.08;12.30;;;;;;;16.38;52.57;100169.63;5038235;28;20115;-54
2023/05/23 03:04:57;;;;;;;16.83;12.02;;;;;;;16.25;52.60;100162.72;5055927;28;20432;-52
2023/05/23 03:07:24;;;;;;;16.73;12.50;;;;;;;16.17;52.83;100170.75;5037400;28;20056;-58
2023/05/23 03:09:50;;;;;;;15.18;11.68;;;;;;;16.16;52.98;100175.34;5055458;28;20033;-56
2023/05/23 03:12:15;;;;;;;22.33;12.23;;;;;;;15.97;53.11;100164.63;5038261;28;20034;-60
2023/05/23 03:14:41;;;;;;;21.63;12.98;;;;;;;16.17;52.90;100179.72;5055404;28;20410;-56
2023/05/23 03:17:06;;;;;;;24.17;11.73;;;;;;;16.06;52.71;100164.59;5054661;28;20048;-58
2023/05/23 03:19:32;;;;;;;21.92;12.35;;;;;;;16.11;52.97;100179.47;5054605;28;20499;-56
2023/05/23 03:21:57;;;;;;;20.02;12.00;;;;;;;16.25;52.45;100183.50;5055722;28;20056;-56
2023/05/23 03:24:23;;;;;;;20.88;12.27;;;;;;;16.28;52.44;100183.22;5054998;28;20441;-58
2023/05/23 03:26:48;;;;;;;17.05;11.98;;;;;;;16.38;52.45;100162.34;5054682;28;20060;-57
2023/05/23 03:29:14;;;;;;;19.25;11.55;;;;;;;16.54;51.42;100169.81;5054152;28;20090;-57
2023/05/23 03:31:39;;;;;;;19.27;12.13;;;;;;;16.79;50.80;100170.84;5055166;28;20037;-58
2023/05/23 03:34:05;;;;;;;19.83;11.63;;;;;;;16.89;50.69;100178.03;5037241;28;20024;-59
2023/05/23 03:36:32;;;;;;;21.70;12.20;;;;;;;17.00;49.94;100158.88;5054666;28;20068;-64
2023/05/23 03:38:58;;;;;;;18.45;12.05;;;;;;;17.27;49.31;100183.25;5054533;28;20033;-57
2023/05/23 03:41:25;;;;;;;19.77;11.32;;;;;;;17.36;49.10;100166.91;5036659;28;20051;-62
2023/05/23 03:43:50;;;;;;;15.43;11.13;;;;;;;17.60;48.22;100164.50;5054672;28;20039;-57
2023/05/23 03:46:16;;;;;;;21.98;11.27;;;;;;;17.75;48.10;100157.47;5054024;28;20037;-59
2023/05/23 03:48:41;;;;;;;19.63;11.35;;;;;;;17.90;47.39;100154.97;5054040;28;20041;-59
2023/05/23 03:51:07;;;;;;;21.10;11.38;;;;;;;18.13;46.84;100165.25;5054222;28;20071;-54
2023/05/23 03:53:32;;;;;;;14.35;10.98;;;;;;;18.37;46.91;100160.91;5054133;28;20029;-59
2023/05/23 03:55:58;;;;;;;19.05;11.80;;;;;;;18.57;46.26;100157.88;5054944;28;20430;-54
2023/05/23 03:58:23;;;;;;;16.63;11.38;;;;;;;18.75;45.56;100155.81;5054342;28;20111;-59
2023/05/23 04:00:49;;;;;;;19.88;10.88;;;;;;;18.87;44.86;100142.78;5054277;28;20033;-60
2023/05/23 04:03:16;;;;;;;16.83;10.43;;;;;;;18.97;44.60;100141.75;5037052;28;20101;-59
2023/05/23 04:05:42;;;;;;;20.63;10.32;;;;;;;19.08;44.12;100149.56;5053790;28;20377;-57
2023/05/23 04:08:08;;;;;;;17.90;11.40;;;;;;;18.89;44.49;100157.00;5053718;28;20025;-57
2023/05/23 04:10:34;;;;;;;20.90;10.50;;;;;;;18.70;44.76;100157.38;5053208;28;20032;-55
2023/05/23 04:12:59;;;;;;;14.95;10.88;;;;;;;18.50;45.23;100155.81;5054565;28;20040;-58
2023/05/23 04:15:26;;;;;;;16.42;10.38;;;;;;;18.28;45.68;100153.75;5053626;28;20036;-58
2023/05/23 04:17:53;;;;;;;17.08;10.52;;;;;;;18.11;46.45;100175.41;5052747;28;20110;-59
2023/05/23 04:20:19;;;;;;;19.38;10.00;;;;;;;17.99;46.05;100169.41;5054556;28;20029;-57
2023/05/23 04:22:45;;;;;;;21.73;10.15;;;;;;;17.94;46.25;100158.19;5036419;28;20102;-56
2023/05/23 04:25:11;;;;;;;12.40;9.50;;;;;;;18.00;46.19;100164.81;5036006;28;20029;-63
2023/05/23 04:27:38;;;;;;;20.83;9.95;;;;;;;18.03;46.31;100150.97;5053585;28;20115;-59
2023/05/23 04:30:08;;;;;;;17.52;9.65;;;;;;;18.17;46.23;100163.03;5054049;28;20445;-58
2023/05/23 04:32:34;;;;;;;20.65;9.45;;;;;;;18.29;45.30;100150.00;5053685;28;20117;-65
2023/05/23 04:35:00;;;;;;;19.38;9.35;;;;;;;18.44;45.18;100151.06;5054059;28;20127;-60
2023/05/23 04:37:27;;;;;;;20.75;10.20;;;;;;;18.58;44.73;100152.25;5036427;28;20453;-59
2023/05/23 04:39:52;;;;;;;18.15;9.40;;;;;;;18.75;44.18;100147.69;5035441;28;20120;-61
2023/05/23 04:42:23;;;;;;;17.33;9.60;;;;;;;18.98;43.76;100144.31;5053167;28;20116;-58
2023/05/23 04:44:49;;;;;;;14.45;9.27;;;;;;;19.29;43.31;100151.75;5053463;28;20526;-60
2023/05/23 04:47:15;;;;;;;16.38;9.88;;;;;;;19.51;42.43;100155.59;5035472;28;20132;-60
2023/05/23 04:49:41;;;;;;;14.88;9.20;;;;;;;19.67;41.82;100155.69;5053757;28;20544;-57
2023/05/23 04:52:06;;;;;;;16.67;9.63;;;;;;;19.69;42.20;100162.66;5052558;28;20064;-57
2023/05/23 04:54:32;;;;;;;16.90;9.30;;;;;;;19.77;42.49;100159.03;5052778;28;20029;-58
2023/05/23 04:56:58;;;;;;;15.85;8.18;;;;;;;19.82;41.90;100151.25;5035140;28;20421;-58
2023/05/23 04:59:23;;;;;;;17.90;8.65;;;;;;;19.88;41.92;100155.09;5052809;28;20020;-58
2023/05/23 05:01:48;;;;;;;15.77;8.43;;;;;;;19.77;42.01;100142.75;5034738;28;20486;-57
2023/05/23 05:04:14;;;;;;;22.40;8.98;;;;;;;19.74;42.08;100153.97;5052588;28;20061;-60
2023/05/23 05:06:40;;;;;;;18.35;8.98;;;;;;;19.45;42.27;100106.56;5032643;28;20021;-59
2023/05/23 05:09:06;;;;;;;14.38;8.32;;;;;;;19.72;42.43;100161.44;5052591;28;20075;-58
2023/05/23 05:11:31;;;;;;;18.25;8.10;;;;;;;19.70;42.11;100168.94;5052401;28;20124;-59
2023/05/23 05:13:57;;;;;;;16.10;8.52;;;;;;;19.63;42.35;100171.50;5053023;28;20115;-56
2023/05/23 05:16:22;;;;;;;23.23;8.70;;;;;;;19.60;42.45;100169.13;5053153;28;20114;-58
2023/05/23 05:18:48;;;;;;;18.25;8.48;;;;;;;19.54;42.39;100188.84;5035688;28;20056;-60
2023/05/23 05:21:14;;;;;;;20.90;8.88;;;;;;;19.54;42.93;100197.84;5052772;28;20071;-61
2023/05/23 05:23:40;;;;;;;15.77;9.10;;;;;;;19.70;42.49;100188.81;5035106;28;20033;-58
2023/05/23 05:26:05;;;;;;;18.27;8.80;;;;;;;19.78;42.39;100188.75;5053347;28;20033;-59
2023/05/23 05:28:31;;;;;;;16.70;8.25;;;;;;;19.92;41.99;100192.66;5052371;28;20090;-60
2023/05/23 05:30:57;;;;;;;15.50;8.20;;;;;;;19.80;41.94;100161.44;5052311;28;20033;-61
2023/05/23 05:33:23;;;;;;;15.65;7.90;;;;;;;19.85;42.07;100186.19;5052012;28;20041;-57
2023/05/23 05:35:52;;;;;;;15.63;7.80;;;;;;;19.62;42.48;100181.53;5052437;28;20029;-59
2023/05/23 05:38:18;;;;;;;15.70;7.55;;;;;;;19.50;43.13;100182.91;5052098;28;20037;-58
2023/05/23 05:40:44;;;;;;;18.83;7.85;;;;;;;19.36;43.55;100181.75;5052414;28;20319;-60
2023/05/23 05:43:09;;;;;;;17.15;7.53;;;;;;;19.34;43.98;100176.50;5052411;28;20025;-60
2023/05/23 05:45:35;;;;;;;13.82;7.75;;;;;;;19.41;43.35;100175.81;5052650;28;20449;-60
2023/05/23 05:48:01;;;;;;;13.68;7.32;;;;;;;19.24;43.06;100156.84;5051694;28;20116;-61
2023/05/23 05:50:27;;;;;;;14.40;7.40;;;;;;;19.45;43.36;100174.44;5052272;28;20766;-57
2023/05/23 05:52:52;;;;;;;12.93;7.22;;;;;;;19.48;43.65;100165.94;5052489;28;20031;-60
2023/05/23 05:55:18;;;;;;;20.80;8.23;;;;;;;19.56;43.13;100174.09;5051885;28;20029;-58
2023/05/23 05:57:44;;;;;;;12.52;7.00;;;;;;;19.58;42.81;100141.31;5051932;28;20108;-55
2023/05/23 06:00:13;;;;;;;12.57;7.20;;;;;;;19.85;42.88;100167.19;5052337;28;20033;-59
2023/05/23 06:02:42;;;;;;;17.45;7.13;;;;;;;20.06;42.05;100176.63;5052086;28;20067;-59
2023/05/23 06:05:11;;;;;;;13.43;6.95;;;;;;;19.93;42.57;100136.44;5052178;28;20116;-58
2023/05/23 06:07:39;;;;;;;14.38;6.50;;;;;;;20.22;41.78;100167.53;5052047;28;20038;-56
2023/05/23 06:10:07;;;;;;;15.18;7.15;;;;;;;20.16;42.53;100174.53;5051855;28;20419;-54
2023/05/23 06:12:34;;;;;;;12.43;7.18;;;;;;;20.13;42.67;100165.88;5051832;28;20441;-54
2023/05/23 06:15:00;;;;;;;16.00;6.88;;;;;;;20.21;42.57;100160.41;5052253;28;20455;-56
2023/05/23 06:17:25;;;;;;;15.80;6.85;;;;;;;20.21;42.36;100160.41;5034069;28;20049;-56
2023/05/23 06:19:51;;;;;;;11.05;6.43;;;;;;;20.17;42.37;100157.19;5034273;28;20029;-59
2023/05/23 06:22:17;;;;;;;15.75;6.43;;;;;;;20.17;42.52;100159.09;5051869;28;20029;-56
2023/05/23 06:24:42;;;;;;;17.77;7.18;;;;;;;20.27;42.55;100145.25;5052306;28;20037;-56
2023/05/23 06:27:08;;;;;;;17.48;6.53;;;;;;;20.44;42.00;100141.38;5051714;28;20025;-63
2023/05/23 06:29:35;;;;;;;11.82;6.60;;;;;;;20.59;41.88;100135.16;5051857;28;20036;-61
2023/05/23 06:32:01;;;;;;;15.27;6.63;;;;;;;20.66;41.48;100119.78;5034687;28;20407;-60
2023/05/23 06:34:27;;;;;;;15.98;6.93;;;;;;;21.03;41.28;100147.22;5052270;28;20025;-61
2023/05/23 06:36:52;;;;;;;12.07;6.03;;;;;;;21.43;39.77;100133.38;5028607;28;20037;-61
2023/05/23 06:39:18;;;;;;;20.33;6.43;;;;;;;22.14;39.41;100137.44;5051254;28;20094;-59
2023/05/23 06:41:43;;;;;;;12.63;6.30;;;;;;;22.84;37.46;100118.63;5051797;28;20032;-60
2023/05/23 06:44:08;;;;;;;17.13;6.22;;;;;;;24.66;34.02;100117.56;5052286;28;20369;-60
2023/05/23 06:46:34;;;;;;;10.88;6.00;;;;;;;26.43;31.51;100124.28;5051270;28;20040;-62
2023/05/23 06:48:59;;;;;;;12.15;6.75;;;;;;;28.07;28.66;100122.22;5051209;28;20045;-61
2023/05/23 06:51:25;;;;;;;10.20;6.00;;;;;;;28.38;28.22;100127.75;5051234;28;20116;-61
2023/05/23 06:53:50;;;;;;;19.15;6.53;;;;;;;28.03;28.54;100118.25;5051975;28;20494;-60
2023/05/23 06:56:16;;;;;;;14.50;6.68;;;;;;;27.68;29.04;100115.31;5051328;28;20112;-62
2023/05/23 06:58:42;;;;;;;12.40;5.60;;;;;;;27.40;29.76;100112.03;5050920;28;20368;-67
2023/05/23 07:01:09;;;;;;;10.82;6.13;;;;;;;27.09;29.46;100097.31;5051815;28;20033;-59
2023/05/23 07:03:37;;;;;;;13.80;5.68;;;;;;;27.40;29.38;100100.19;5034900;28;20071;-60
2023/05/23 07:06:03;;;;;;;14.40;6.05;;;;;;;29.06;27.25;100103.56;5041160;28;20363;-62
2023/05/23 07:08:28;;;;;;;11.68;5.93;;;;;;;30.67;24.52;100062.56;5048335;28;20072;-65
2023/05/23 07:10:54;;;;;;;15.40;5.07;;;;;;;31.43;23.91;100068.63;5054781;28;20112;-62
2023/05/23 07:13:19;;;;;;;12.77;5.25;;;;;;;32.95;22.20;100087.34;5037531;28;20072;-62
2023/05/23 07:15:45;;;;;;;9.98;4.90;;;;;;;34.20;20.27;100083.97;5053314;28;20055;-62
2023/05/23 07:18:11;;;;;;;10.88;5.47;;;;;;;34.92;19.54;100087.88;5051135;28;20051;-65
2023/05/23 07:20:36;;;;;;;13.55;4.80;;;;;;;35.68;18.67;100081.53;5048264;28;20033;-61
2023/05/23 07:23:02;;;;;;;10.40;5.38;;;;;;;35.50;18.97;100087.44;5055319;28;20492;-64
2023/05/23 07:25:27;;;;;;;13.90;5.32;;;;;;;35.30;18.89;100082.81;5036843;28;20376;-62
2023/05/23 07:27:53;;;;;;;9.43;4.55;;;;;;;35.33;18.94;100098.13;5053839;28;20064;-63
2023/05/23 07:30:21;;;;;;;13.32;4.88;;;;;;;35.03;19.20;100092.34;5035185;28;20029;-63
2023/05/23 07:32:47;;;;;;;7.97;4.90;;;;;;;34.34;19.70;100098.16;5019969;28;20460;-63
2023/05/23 07:35:14;;;;;;;12.43;5.00;;;;;;;33.64;20.39;100088.25;5051271;28;20127;-70
2023/05/23 07:37:40;;;;;;;11.32;4.75;;;;;;;33.40;20.86;100084.25;5036208;28;20040;-61
2023/05/23 07:40:09;;;;;;;13.05;5.63;;;;;;;33.27;20.89;100083.63;5054047;28;20132;-65
2023/05/23 07:42:35;;;;;;;12.75;5.38;;;;;;;33.41;20.76;100091.47;5036694;28;20403;-64
2023/05/23 07:45:01;;;;;;;10.25;4.85;;;;;;;33.53;20.79;100085.72;5019391;28;20040;-62
2023/05/23 07:47:26;;;;;;;12.02;5.38;;;;;;;33.78;20.95;100076.66;5053828;28;20033;-66
2023/05/23 07:49:53;;;;;;;13.75;4.90;;;;;;;34.74;19.98;100087.34;5053557;28;20102;-61
2023/05/23 07:52:19;;;;;;;10.95;4.60;;;;;;;35.51;18.60;100088.31;5042793;28;20036;-62
2023/05/23 07:54:45;;;;;;;14.00;4.80;;;;;;;35.10;18.65;100100.41;5053588;28;20040;-63
2023/05/23 07:57:10;;;;;;;13.65;4.53;;;;;;;34.25;20.03;100099.00;5036146;28;20033;-63
2023/05/23 07:59:37;;;;;;;16.27;4.15;;;;;;;33.55;20.96;100084.34;5052984;28;20037;-62
2023/05/23 08:02:03;;;;;;;11.93;4.55;;;;;;;33.37;20.92;100099.47;5053937;28;20123;-59
2023/05/23 08:04:29;;;;;;;11.43;4.07;;;;;;;32.67;21.49;100092.09;5053318;28;20039;-59
2023/05/23 08:06:55;;;;;;;11.05;4.32;;;;;;;31.67;23.40;100102.41;5052246;28;20190;-61
2023/05/23 08:09:22;;;;;;;14.48;4.40;;;;;;;30.87;23.94;100075.03;5052143;28;20116;-60
2023/05/23 08:11:47;;;;;;;10.05;4.05;;;;;;;30.66;24.26;100099.59;5035562;28;20119;-61
2023/05/23 08:14:13;;;;;;;12.70;4.32;;;;;;;30.32;24.56;100089.31;5053464;28;20079;-58
2023/05/23 08:16:39;;;;;;;12.00;4.93;;;;;;;29.98;25.64;100103.00;5053242;28;20056;-59
2023/05/23 08:19:05;;;;;;;11.68;4.88;;;;;;;29.67;26.03;100099.66;5053476;28;20098;-61
2023/05/23 08:21:31;;;;;;;9.73;4.70;;;;;;;29.25;26.83;100103.44;5053036;28;20045;-57
2023/05/23 08:23:56;;;;;;;11.57;4.80;;;;;;;28.53;27.56;100096.19;5053276;28;20116;-59
2023/05/23 08:26:22;;;;;;;12.60;4.57;;;;;;;27.88;28.90;100085.66;5053290;28;20028;-57
2023/05/23 08:28:48;;;;;;;9.18;4.90;;;;;;;27.73;29.10;100099.81;5053085;28;20439;-59
2023/05/23 08:31:14;;;;;;;16.27;5.43;;;;;;;27.43;29.69;100110.72;5053355;28;20127;-59
2023/05/23 08:33:39;;;;;;;10.45;4.65;;;;;;;27.05;30.67;100096.97;5053244;28;20064;-60
2023/05/23 08:36:05;;;;;;;10.35;4.43;;;;;;;26.87;31.16;100089.50;5051650;28;20033;-60
2023/05/23 08:38:30;;;;;;;11.43;4.90;;;;;;;26.97;30.95;100086.25;5051876;28;20044;-62
2023/05/23 08:41:00;;;;;;;15.10;4.65;;;;;;;27.11;31.11;100086.13;5052261;28;20448;-62
2023/05/23 08:43:25;;;;;;;12.30;5.03;;;;;;;27.03;30.88;100090.84;5037205;28;20372;-57
2023/05/23 08:45:51;;;;;;;11.90;5.30;;;;;;;26.85;31.55;100082.56;5036867;28;20033;-58
2023/05/23 08:48:19;;;;;;;11.40;5.20;;;;;;;26.86;31.69;100084.25;5051959;28;20044;-61
2023/05/23 08:50:46;;;;;;;11.50;5.30;;;;;;;26.74;32.41;100093.19;5052793;28;20037;-61
2023/05/23 08:53:19;;;;;;;11.90;4.75;;;;;;;26.47;32.70;100082.41;5051901;28;20411;-59
2023/05/23 08:55:46;;;;;;;11.43;4.45;;;;;;;26.18;33.29;100076.50;5019614;28;20048;-58
2023/05/23 08:58:12;;;;;;;13.02;5.03;;;;;;;25.94;34.14;100078.94;5052614;28;20032;-61
2023/05/23 09:00:38;;;;;;;9.23;4.72;;;;;;;25.58;34.66;100080.38;5047806;28;20029;-60
2023/05/23 09:03:04;;;;;;;10.43;4.57;;;;;;;25.15;35.91;100059.81;5052425;28;20051;-60
2023/05/23 09:05:29;;;;;;;7.97;4.47;;;;;;;25.05;36.05;100078.59;5052162;28;20028;-59
2023/05/23 09:07:55;;;;;;;14.70;4.20;;;;;;;24.64;37.09;100096.94;5052187;28;20025;-56
2023/05/23 09:10:21;;;;;;;12.10;4.40;;;;;;;24.31;37.80;100082.16;5052596;28;20037;-60
2023/05/23 09:12:48;;;;;;;10.30;4.25;;;;;;;24.14;38.58;100098.13;5052428;28;20479;-63
2023/05/23 09:15:13;;;;;;;12.55;5.10;;;;;;;24.03;38.40;100101.47;5052198;28;20025;-64
2023/05/23 09:17:39;;;;;;;9.60;4.50;;;;;;;23.93;39.20;100096.34;5035125;28;20554;-63
2023/05/23 09:20:16;;;;;;;15.95;4.45;;;;;;;24.12;38.88;100102.97;5051291;28;20472;-62
2023/05/23 09:22:48;;;;;;;11.63;4.03;;;;;;;24.31;38.44;100073.97;5048510;28;20064;-61
2023/05/23 09:25:14;;;;;;;9.05;3.75;;;;;;;24.62;38.46;100104.53;5052498;28;20124;-62
2023/05/23 09:27:41;;;;;;;8.38;3.97;;;;;;;24.65;38.50;100115.03;5051268;28;20105;-61
2023/05/23 09:30:11;;;;;;;8.80;3.75;;;;;;;24.59;38.01;100104.91;5052204;28;20045;-61
2023/05/23 09:32:38;;;;;;;10.82;3.83;;;;;;;24.69;38.42;100109.97;5033515;28;20033;-61
2023/05/23 09:35:11;;;;;;;9.00;4.07;;;;;;;24.46;38.88;100133.97;5052028;28;20425;-63
2023/05/23 09:37:39;;;;;;;7.18;3.53;;;;;;;24.10;39.68;100140.59;5051709;28;20193;-61
2023/05/23 09:40:11;;;;;;;7.78;3.60;;;;;;;23.74;40.03;100119.84;5047583;28;20444;-61
2023/05/23 09:42:47;;;;;;;6.72;3.92;;;;;;;23.77;40.60;100130.38;5051335;28;20035;-63
2023/05/23 09:45:15;;;;;;;5.95;3.42;;;;;;;23.28;41.61;100127.59;5052116;28;20112;-60
2023/05/23 09:47:53;;;;;;;9.50;4.05;;;;;;;23.18;41.51;100132.53;5051474;28;20498;-62
2023/05/23 09:50:19;;;;;;;6.40;3.70;;;;;;;22.65;42.58;100151.00;5032220;28;20029;-61
2023/05/23 09:52:45;;;;;;;10.18;3.88;;;;;;;22.27;44.49;100128.56;5039216;28;20036;-62
2023/05/23 09:55:11;;;;;;;8.95;3.75;;;;;;;22.09;44.84;100140.75;5051524;28;20024;-61
2023/05/23 09:57:41;;;;;;;8.40;4.05;;;;;;;21.83;45.52;100142.13;5050008;28;20048;-61
2023/05/23 10:00:12;;;;;;;9.77;4.57;;;;;;;21.68;46.39;100144.84;5017700;28;20029;-62
2023/05/23 10:03:12;;;;;;;5.35;4.10;;;;;;;21.56;46.72;100139.00;5051388;28;20115;-64
2023/05/23 10:05:49;;;;;;;7.05;4.30;;;;;;;21.46;46.93;100146.59;5033806;28;20052;-62
2023/05/23 10:08:28;;;;;;;7.05;4.10;;;;;;;21.28;47.86;100134.22;5051352;28;20447;-60
2023/05/23 10:10:56;;;;;;;7.72;4.20;;;;;;;21.10;48.36;100136.44;5050614;28;20440;-62
2023/05/23 10:13:27;;;;;;;8.35;4.50;;;;;;;21.12;48.60;100137.09;5034137;28;20124;-63
2023/05/23 10:16:01;;;;;;;10.48;4.70;;;;;;;21.26;48.53;100141.72;5050410;28;20041;-64
2023/05/23 10:18:38;;;;;;;7.03;4.70;;;;;;;21.23;47.57;100115.72;5049899;28;20044;-62
2023/05/23 10:21:16;;;;;;;8.70;4.57;;;;;;;21.32;48.25;100140.13;5015838;28;20033;-63
2023/05/23 10:23:43;;;;;;;10.05;4.38;;;;;;;21.33;48.04;100149.97;5039352;28;20629;-62
2023/05/23 10:26:10;;;;;;;7.70;4.85;;;;;;;21.23;48.29;100133.94;5032276;28;20044;-63
2023/05/23 10:28:36;;;;;;;10.35;4.85;;;;;;;21.10;49.26;100139.16;5050269;28;20026;-61
2023/05/23 10:31:02;;;;;;;7.40;4.60;;;;;;;20.96;49.43;100128.06;5051397;28;20036;-62
2023/05/23 10:33:35;;;;;;;6.80;4.90;;;;;;;20.89;49.45;100138.00;5051717;28;20037;-62
2023/05/23 10:36:32;;;;;;;9.25;4.68;;;;;;;20.81;49.41;100116.31;5051759;28;20313;-60
2023/05/23 10:39:12;;;;;;;7.43;4.40;;;;;;;20.61;50.49;100136.66;5034177;28;20036;-62
2023/05/23 10:41:59;;;;;;;9.27;4.47;;;;;;;20.73;50.34;100147.94;5055724;28;20063;-61
2023/05/23 10:44:29;;;;;;;11.73;4.57;;;;;;;20.82;50.78;100156.94;5037956;28;20345;-63
2023/05/23 10:47:00;;;;;;;8.73;5.18;;;;;;;20.75;51.10;100151.38;5055477;28;20100;-60
2023/05/23 10:49:53;;;;;;;8.57;5.18;;;;;;;20.90;50.88;100143.28;5054664;28;20025;-64
2023/05/23 10:52:20;;;;;;;9.75;5.60;;;;;;;20.37;52.08;100102.34;5050998;28;20036;-66
2023/05/23 10:54:47;;;;;;;13.57;5.90;;;;;;;20.45;52.87;100148.50;5055370;28;20029;-63
2023/05/23 10:57:18;;;;;;;9.15;5.43;;;;;;;20.29;54.28;100145.94;5036843;28;20033;-64
2023/05/23 10:59:49;;;;;;;11.07;6.50;;;;;;;20.13;54.43;100145.00;5054993;28;20028;-62
2023/05/23 11:02:18;;;;;;;11.20;5.68;;;;;;;20.01;55.51;100160.00;5055710;28;20029;-63
2023/05/23 11:04:44;;;;;;;10.40;6.30;;;;;;;19.90;55.38;100147.66;5055479;28;20033;-63
2023/05/23 11:07:30;;;;;;;9.32;6.80;;;;;;;19.92;56.21;100151.06;5054922;28;20112;-63
2023/05/23 11:10:22;;;;;;;12.45;6.40;;;;;;;19.82;55.80;100147.66;5036675;28;20036;-61
2023/05/23 11:12:48;;;;;;;11.57;6.60;;;;;;;19.46;57.72;100140.84;5050988;28;20041;-60
2023/05/23 11:15:16;;;;;;;11.98;7.20;;;;;;;19.47;58.52;100150.66;5054114;28;20055;-63
2023/05/23 11:17:56;;;;;;;13.40;7.78;;;;;;;19.41;57.71;100144.09;5054185;28;20048;-61